Hypoluxo, Florida
Current Conditions -  °F | °C
As of 8:53 PM on Monday 24 Nov 2014 (Local Time) from KPBI Reporting Station
Broken Clouds Broken Clouds  
Wind Chill: 80°   Ceiling: 25000
Heat Index: 86°   Visibility: 10mi
Dew Point: 77°   Wind: 9mph
Humidity: 90%   Direction: 170°S
Pressure: 30.02"   Gusts: NA
Location:  26.5758°N, 80.0835°W
Report Text: KPBI 250153Z 17008KT 10SM SCT038 BKN250 27/25 A3002 RMK AO2 SLP164 T02670250
Loading
Personal Weather Stations






























Interactive Weather Map New forecast layout! Learn more

10-Day Weather Forecast

Advertisements
Track Severe Weather on mobile